NDF181 EDDL-EDDH
Flight info
| Callsign | NDF181 |
|---|---|
| Flight time | N/A |
| Altitude | 33000 |
| Route | MEVEL4T MEVEL Y850 BASUM/N0445F320 Y850 PIXUR/N0445F310 Y850 MUBZI M105 RIBSO RIBSO3D |
| Aircraft | A319/M-SDE3FGHIRWY/LB1 |
Departure
| Time | 2026-05-01 13:12 |
|---|---|
| Airport | Düsseldorf Airport (EDDL) |
Arrival
| Time | N/A |
|---|---|
| Airport | Hamburg Helmut Schmidt Airport (EDDH) |
| Time | Latitude | Longitude | Altitude | Speed | Heading |
|---|---|---|---|---|---|
| 2026-05-01 12:54 | 51.28106 | 6.76718 | 129 ft | 0 kts | 276° |
| 2026-05-01 13:07 | 51.29165 | 6.78194 | 136 ft | 30 kts | 52° |
| 2026-05-01 13:07 | 51.29274 | 6.78422 | 145 ft | 16 kts | 53° |
| 2026-05-01 13:07 | 51.29318 | 6.78510 | 149 ft | 9 kts | 47° |
| 2026-05-01 13:08 | 51.29361 | 6.78561 | 152 ft | 7 kts | 23° |
| 2026-05-01 13:08 | 51.29404 | 6.78569 | 153 ft | 6 kts | 358° |
| 2026-05-01 13:08 | 51.29426 | 6.78566 | 153 ft | 1 kts | 355° |
| 2026-05-01 13:08 | 51.29427 | 6.78566 | 153 ft | 0 kts | 355° |
| 2026-05-01 13:10 | 51.29428 | 6.78566 | 153 ft | 1 kts | 355° |
| 2026-05-01 13:10 | 51.29480 | 6.78554 | 152 ft | 14 kts | 345° |
| 2026-05-01 13:10 | 51.29500 | 6.78432 | 150 ft | 9 kts | 236° |
| 2026-05-01 13:11 | 51.29490 | 6.78410 | 149 ft | 0 kts | 232° |
| 2026-05-01 13:11 | 51.29286 | 6.77985 | 138 ft | 99 kts | 232° |
| 2026-05-01 13:12 | 51.28689 | 6.76748 | 221 ft | 172 kts | 231° |
| 2026-05-01 13:12 | 51.27925 | 6.75096 | 967 ft | 189 kts | 232° |
| 2026-05-01 13:12 | 51.27142 | 6.73396 | 2072 ft | 190 kts | 232° |
| 2026-05-01 13:12 | 51.26510 | 6.71537 | 3163 ft | 200 kts | 254° |
| 2026-05-01 13:13 | 51.26771 | 6.69299 | 4179 ft | 219 kts | 297° |
| 2026-05-01 13:13 | 51.27969 | 6.67782 | 5257 ft | 228 kts | 339° |
| 2026-05-01 13:13 | 51.29545 | 6.67752 | 6255 ft | 233 kts | 16° |
| 2026-05-01 13:13 | 51.31156 | 6.68581 | 6930 ft | 254 kts | 20° |
| 2026-05-01 13:14 | 51.32958 | 6.69236 | 7731 ft | 273 kts | 9° |
| 2026-05-01 13:14 | 51.34872 | 6.69521 | 8933 ft | 278 kts | 5° |
| 2026-05-01 13:14 | 51.36814 | 6.69662 | 10151 ft | 283 kts | 4° |
| 2026-05-01 13:14 | 51.38798 | 6.69767 | 11203 ft | 288 kts | 3° |
| 2026-05-01 13:15 | 51.40820 | 6.69784 | 12271 ft | 292 kts | 1° |
| 2026-05-01 13:15 | 51.42870 | 6.69738 | 13383 ft | 296 kts | 0° |
| 2026-05-01 13:15 | 51.44943 | 6.69728 | 14405 ft | 300 kts | 6° |
| 2026-05-01 13:15 | 51.46951 | 6.70586 | 15280 ft | 301 kts | 30° |
| 2026-05-01 13:16 | 51.48620 | 6.72577 | 16217 ft | 302 kts | 46° |
| 2026-05-01 13:16 | 51.50207 | 6.74979 | 16825 ft | 326 kts | 46° |
| 2026-05-01 13:16 | 51.50572 | 6.75536 | 16937 ft | 331 kts | 47° |
| 2026-05-01 13:18 | 51.53695 | 6.80329 | 17988 ft | 363 kts | 46° |
| 2026-05-01 13:18 | 51.55104 | 6.82478 | 18672 ft | 369 kts | 46° |
| 2026-05-01 13:18 | 51.55401 | 6.82932 | 18808 ft | 370 kts | 46° |
| 2026-05-01 13:19 | 51.55896 | 6.83703 | 19034 ft | 371 kts | 46° |
| 2026-05-01 13:20 | 51.57762 | 6.86598 | 19928 ft | 375 kts | 46° |
| 2026-05-01 13:20 | 51.59664 | 6.89499 | 20862 ft | 378 kts | 45° |
| 2026-05-01 13:20 | 51.61589 | 6.92421 | 21792 ft | 382 kts | 44° |
| 2026-05-01 13:21 | 51.65491 | 6.98358 | 23656 ft | 389 kts | 44° |